Terminal Aerodrome Forecast
Issued by NWS Wilmington, NC

Home | Current Version | Previous Version | Text Only | Print | Product List | Glossary On
Versions: 1 2 3 4 5 6 7 8 9 10 11 12 13 14 15
000
FTUS42 KILM 301131
TAFILM
TAF
KILM 301131Z 3012/0112 VRB05KT 6SM -SHRA VCTS SCT020 BKN035CB
      BKN090
      TEMPO 3012/3016 VRB15KT 3SM TSRA BKN020CB
     FM301700 17010KT P6SM VCSH SCT025 BKN090
     FM302100 20005KT P6SM SCT080 SCT250
     FM010200 VRB03KT P6SM FEW250=

USA.gov is the U.S. government's official web portal to all federal, state and local government web resources and services.